Terminal Aerodrome Forecast
Issued by NWS

Home | Current Version | Previous Version | Text Only | Print | Product List | Glossary On
Versions: 1 2 3 4 5 6 7 8 9 10 11 12 13 14 15 16 17 18 19 20 21 22 23 24 25 26 27 28 29 30 31 32
000
FTUS45 KGJT 210359 AAB
TAFTEX
TAF AMD
KTEX 210359Z 2104/2124 29010G16KT 4SM -SN SCT005 BKN023 OVC040
      TEMPO 2104/2107 1/2SM SN FZFG OVC002
     FM210800 22012G27KT 3SM -SHSN BR SCT020 BKN025
     FM211300 25010G20KT 2SM -SHSN BR SCT008 OVC015=

USA.gov is the U.S. government's official web portal to all federal, state and local government web resources and services.